Time;durP1;ratioP1;P1;durP2;ratioP2;P2;SDS_P1;SDS_P2;PMS_P1;PMS_P2;Temp;Humidity;BMP_temperature;BMP_pressure;BME280_temperature;BME280_humidity;BME280_pressure;Samples;Min_cycle;Max_cycle;Signal;HPM_P1;HPM_P2
2021/07/09 00:00:39;;;;;;;50.00;42.67;;;;;;;;;;769707;179;904325;-74
2021/07/09 00:03:02;;;;;;;54.40;45.47;;;;;;;;;;788471;174;913064;-77
2021/07/09 00:05:28;;;;;;;58.83;49.07;;;;;;;;;;775943;176;885242;-74
2021/07/09 00:07:54;;;;;;;56.30;46.70;;;;;;;;;;767605;180;911772;-75
2021/07/09 00:10:20;;;;;;;58.60;48.40;;;;;;;;;;772856;180;918373;-77
2021/07/09 00:12:46;;;;;;;60.27;49.10;;;;;;;;;;775506;180;919211;-76
2021/07/09 00:15:12;;;;;;;55.97;47.80;;;;;;;;;;773249;180;898826;-76
2021/07/09 00:17:38;;;;;;;57.20;48.63;;;;;;;;;;777190;179;918954;-73
2021/07/09 00:20:04;;;;;;;59.90;48.30;;;;;;;;;;777116;179;918269;-75
2021/07/09 00:22:31;;;;;;;64.70;48.03;;;;;;;;;;772470;180;919250;-72
2021/07/09 00:24:56;;;;;;;61.07;49.10;;;;;;;;;;773814;180;918998;-72
2021/07/09 00:27:22;;;;;;;69.60;51.60;;;;;;;;;;790476;173;918768;-74
2021/07/09 00:29:48;;;;;;;65.90;51.17;;;;;;;;;;765101;180;937978;-76
2021/07/09 00:32:14;;;;;;;71.33;54.40;;;;;;;;;;760443;180;918180;-71
2021/07/09 00:34:40;;;;;;;63.20;50.85;;;;;;;;;;763644;179;916878;-73
2021/07/09 00:37:06;;;;;;;69.60;53.00;;;;;;;;;;773808;179;918469;-73
2021/07/09 00:39:31;;;;;;;68.23;53.17;;;;;;;;;;774748;180;920673;-71
2021/07/09 00:41:57;;;;;;;82.23;58.37;;;;;;;;;;785276;175;918800;-74
2021/07/09 00:44:23;;;;;;;69.27;56.37;;;;;;;;;;774990;180;918985;-72
2021/07/09 00:46:49;;;;;;;70.43;53.47;;;;;;;;;;771182;180;919350;-72
2021/07/09 00:49:15;;;;;;;70.50;57.03;;;;;;;;;;771791;180;919325;-71
2021/07/09 00:51:41;;;;;;;69.43;56.60;;;;;;;;;;780558;179;917488;-76
2021/07/09 00:54:07;;;;;;;78.43;56.90;;;;;;;;;;772309;180;918764;-73
2021/07/09 00:56:32;;;;;;;79.03;59.67;;;;;;;;;;767522;180;918699;-74
2021/07/09 00:58:58;;;;;;;84.10;58.97;;;;;;;;;;761939;180;1057690;-77
2021/07/09 01:01:24;;;;;;;81.97;61.60;;;;;;;;;;770391;180;919302;-75
2021/07/09 01:03:50;;;;;;;84.17;61.70;;;;;;;;;;769026;179;921058;-74
2021/07/09 01:06:16;;;;;;;87.97;61.53;;;;;;;;;;772056;179;919065;-71
2021/07/09 01:08:42;;;;;;;79.97;57.77;;;;;;;;;;776574;180;919407;-73
2021/07/09 01:11:07;;;;;;;80.90;62.70;;;;;;;;;;769903;180;920520;-73
2021/07/09 01:13:33;;;;;;;78.07;59.17;;;;;;;;;;763482;180;919538;-72
2021/07/09 01:15:59;;;;;;;88.87;59.93;;;;;;;;;;775844;180;918923;-73
2021/07/09 01:18:25;;;;;;;80.03;60.10;;;;;;;;;;771406;180;919148;-70
2021/07/09 01:20:51;;;;;;;83.60;60.80;;;;;;;;;;770590;180;918543;-70
2021/07/09 01:23:17;;;;;;;81.60;58.77;;;;;;;;;;774801;180;919032;-76
2021/07/09 01:25:42;;;;;;;91.43;59.60;;;;;;;;;;773046;179;917338;-73
2021/07/09 01:28:08;;;;;;;88.63;56.80;;;;;;;;;;776380;176;920515;-70
2021/07/09 01:30:34;;;;;;;74.10;54.47;;;;;;;;;;781084;176;918458;-69
2021/07/09 01:33:00;;;;;;;62.60;49.50;;;;;;;;;;768552;179;919364;-70
2021/07/09 01:35:26;;;;;;;65.70;47.90;;;;;;;;;;764908;180;919289;-76
2021/07/09 01:37:54;;;;;;;66.10;47.53;;;;;;;;;;771387;180;919361;-71
2021/07/09 01:40:20;;;;;;;57.60;44.03;;;;;;;;;;782691;177;917637;-74
2021/07/09 01:42:45;;;;;;;50.00;40.57;;;;;;;;;;778236;177;917097;-74
2021/07/09 01:45:11;;;;;;;50.53;39.60;;;;;;;;;;775741;180;918731;-72
2021/07/09 01:47:37;;;;;;;47.23;34.87;;;;;;;;;;777356;180;919363;-72
2021/07/09 01:50:03;;;;;;;50.00;40.90;;;;;;;;;;781646;176;919982;-77
2021/07/09 01:52:29;;;;;;;51.73;37.20;;;;;;;;;;771057;180;918455;-75
2021/07/09 01:54:55;;;;;;;42.70;36.80;;;;;;;;;;778777;177;815348;-73
2021/07/09 01:57:21;;;;;;;44.60;36.20;;;;;;;;;;770896;177;917016;-76
2021/07/09 01:59:47;;;;;;;55.47;39.30;;;;;;;;;;771110;180;919635;-73
2021/07/09 02:02:13;;;;;;;46.43;37.07;;;;;;;;;;780710;176;919279;-73
2021/07/09 02:04:42;;;;;;;53.03;37.33;;;;;;;;;;776550;179;920467;-72
2021/07/09 02:07:08;;;;;;;45.33;35.77;;;;;;;;;;778964;177;897568;-73
2021/07/09 02:09:34;;;;;;;49.13;36.00;;;;;;;;;;774817;178;919067;-75
2021/07/09 02:12:00;;;;;;;46.73;36.27;;;;;;;;;;774413;180;938596;-76
2021/07/09 02:14:26;;;;;;;39.57;31.03;;;;;;;;;;768955;179;919527;-74
2021/07/09 02:16:53;;;;;;;42.10;33.00;;;;;;;;;;773559;178;918854;-72
2021/07/09 02:19:19;;;;;;;45.70;34.73;;;;;;;;;;772284;179;915916;-73
2021/07/09 02:21:45;;;;;;;46.10;31.00;;;;;;;;;;782088;180;714805;-73
2021/07/09 02:24:11;;;;;;;35.07;29.80;;;;;;;;;;783856;174;915779;-75
2021/07/09 02:26:37;;;;;;;40.87;32.43;;;;;;;;;;778870;177;918777;-72
2021/07/09 02:29:03;;;;;;;40.97;27.80;;;;;;;;;;781614;176;916558;-71
2021/07/09 02:31:28;;;;;;;43.27;31.00;;;;;;;;;;772381;179;907006;-72
2021/07/09 02:33:54;;;;;;;39.67;29.23;;;;;;;;;;771225;180;916211;-74
2021/07/09 02:36:20;;;;;;;47.07;30.83;;;;;;;;;;772554;180;919295;-74
2021/07/09 02:38:46;;;;;;;37.57;28.00;;;;;;;;;;780182;176;914793;-76
2021/07/09 02:41:12;;;;;;;43.00;29.73;;;;;;;;;;784054;173;908046;-71
2021/07/09 02:43:38;;;;;;;42.37;31.07;;;;;;;;;;786778;175;915523;-73
2021/07/09 02:46:03;;;;;;;38.83;29.15;;;;;;;;;;767498;178;915082;-73
2021/07/09 02:48:29;;;;;;;41.43;30.87;;;;;;;;;;769648;180;918848;-72
2021/07/09 02:50:55;;;;;;;43.50;32.10;;;;;;;;;;768957;180;919821;-72
2021/07/09 02:53:21;;;;;;;47.60;32.80;;;;;;;;;;778127;180;910578;-73
2021/07/09 02:55:47;;;;;;;48.17;33.90;;;;;;;;;;778468;177;919828;-73
2021/07/09 02:58:13;;;;;;;45.63;34.83;;;;;;;;;;782087;177;920183;-74
2021/07/09 03:00:39;;;;;;;51.05;34.13;;;;;;;;;;775536;180;921543;-75
2021/07/09 03:03:04;;;;;;;45.93;34.43;;;;;;;;;;770126;180;914023;-74
2021/07/09 03:05:30;;;;;;;47.60;34.63;;;;;;;;;;768534;180;923788;-74
2021/07/09 03:07:56;;;;;;;55.47;37.07;;;;;;;;;;775061;179;911597;-74
2021/07/09 03:10:22;;;;;;;57.03;39.70;;;;;;;;;;779200;175;909725;-75
2021/07/09 03:12:48;;;;;;;51.27;35.00;;;;;;;;;;774048;176;911649;-73
2021/07/09 03:15:14;;;;;;;57.37;40.77;;;;;;;;;;767981;180;911312;-74
2021/07/09 03:17:39;;;;;;;68.70;42.43;;;;;;;;;;775138;180;895611;-77
2021/07/09 03:20:07;;;;;;;50.27;39.13;;;;;;;;;;768743;180;1419351;-78
2021/07/09 03:22:33;;;;;;;49.80;36.13;;;;;;;;;;769675;180;922140;-73
2021/07/09 03:24:59;;;;;;;46.47;35.67;;;;;;;;;;781084;177;911603;-74
2021/07/09 03:27:24;;;;;;;42.70;35.13;;;;;;;;;;778981;176;914150;-77
2021/07/09 03:29:50;;;;;;;41.93;32.43;;;;;;;;;;774551;179;914386;-75
2021/07/09 03:32:16;;;;;;;38.20;30.57;;;;;;;;;;777325;180;812051;-75
2021/07/09 03:34:42;;;;;;;40.53;31.57;;;;;;;;;;769970;180;903057;-75
2021/07/09 03:37:08;;;;;;;34.95;29.40;;;;;;;;;;773160;180;914846;-76
2021/07/09 03:39:34;;;;;;;33.43;25.20;;;;;;;;;;766751;180;919659;-74
2021/07/09 03:41:59;;;;;;;31.70;25.47;;;;;;;;;;776911;180;1028318;-75
2021/07/09 03:44:25;;;;;;;32.53;26.27;;;;;;;;;;771786;180;919532;-74
2021/07/09 03:46:51;;;;;;;34.87;27.63;;;;;;;;;;774079;180;920663;-75
2021/07/09 03:49:17;;;;;;;32.43;27.37;;;;;;;;;;774868;180;939111;-76
2021/07/09 03:51:43;;;;;;;30.10;23.13;;;;;;;;;;771662;180;818630;-74
2021/07/09 03:54:11;;;;;;;31.63;25.20;;;;;;;;;;773452;180;899100;-76
2021/07/09 03:56:35;;;;;;;30.53;24.50;;;;;;;;;;774653;180;919611;-76
2021/07/09 03:59:01;;;;;;;34.07;25.10;;;;;;;;;;765183;180;918509;-76
2021/07/09 04:01:27;;;;;;;31.17;25.10;;;;;;;;;;761978;180;918896;-75
2021/07/09 04:03:52;;;;;;;29.90;25.20;;;;;;;;;;772571;180;918320;-75
2021/07/09 04:06:18;;;;;;;27.73;23.00;;;;;;;;;;767791;180;918111;-77
2021/07/09 04:08:44;;;;;;;29.13;23.63;;;;;;;;;;768260;180;920569;-77
2021/07/09 04:11:10;;;;;;;28.67;22.23;;;;;;;;;;784432;177;816621;-77
2021/07/09 04:13:36;;;;;;;26.20;23.30;;;;;;;;;;776782;177;919147;-75
2021/07/09 04:16:02;;;;;;;26.70;22.40;;;;;;;;;;773501;180;927158;-75
2021/07/09 04:18:28;;;;;;;23.67;21.13;;;;;;;;;;780111;173;911321;-77
2021/07/09 04:20:53;;;;;;;16.23;11.30;;;;;;;;;;783587;174;918940;-75
2021/07/09 04:23:19;;;;;;;17.83;12.30;;;;;;;;;;769442;180;912452;-76
2021/07/09 04:25:45;;;;;;;16.70;13.43;;;;;;;;;;769343;180;918848;-78
2021/07/09 04:28:11;;;;;;;16.50;12.30;;;;;;;;;;775769;180;918809;-77
2021/07/09 04:30:37;;;;;;;14.83;12.60;;;;;;;;;;774351;177;919270;-77
2021/07/09 04:33:03;;;;;;;11.05;9.38;;;;;;;;;;777336;176;1094620;-77
2021/07/09 04:35:28;;;;;;;8.83;7.43;;;;;;;;;;777105;173;921461;-77
2021/07/09 04:37:54;;;;;;;9.70;6.10;;;;;;;;;;784105;177;918815;-77
2021/07/09 04:40:20;;;;;;;8.40;6.03;;;;;;;;;;773026;179;974234;-76
2021/07/09 04:42:46;;;;;;;7.57;6.20;;;;;;;;;;770398;179;919147;-76
2021/07/09 04:45:12;;;;;;;10.97;7.13;;;;;;;;;;776734;180;922743;-77
2021/07/09 04:47:38;;;;;;;22.20;7.00;;;;;;;;;;772458;180;918967;-77
2021/07/09 04:50:04;;;;;;;8.27;6.00;;;;;;;;;;777823;178;917011;-80
2021/07/09 04:52:30;;;;;;;6.37;5.40;;;;;;;;;;783285;176;917924;-79
2021/07/09 04:54:56;;;;;;;9.53;4.57;;;;;;;;;;771452;180;919051;-78
2021/07/09 04:57:21;;;;;;;11.77;5.73;;;;;;;;;;771839;180;916730;-78
2021/07/09 04:59:47;;;;;;;6.35;4.90;;;;;;;;;;771666;180;920033;-78
2021/07/09 05:02:13;;;;;;;10.03;6.00;;;;;;;;;;778580;177;815105;-79
2021/07/09 05:04:39;;;;;;;11.17;5.73;;;;;;;;;;772060;179;917335;-78
2021/07/09 05:07:05;;;;;;;8.50;4.57;;;;;;;;;;771448;180;917491;-79
2021/07/09 05:09:31;;;;;;;8.87;5.27;;;;;;;;;;778938;180;865269;-79
2021/07/09 05:11:56;;;;;;;6.20;5.00;;;;;;;;;;770298;180;917919;-79
2021/07/09 05:14:22;;;;;;;8.97;5.10;;;;;;;;;;775425;175;918892;-78
2021/07/09 05:16:48;;;;;;;5.87;4.80;;;;;;;;;;788486;173;939175;-77
2021/07/09 05:19:14;;;;;;;6.80;5.60;;;;;;;;;;782425;174;918465;-81
2021/07/09 05:21:40;;;;;;;7.30;5.10;;;;;;;;;;780850;173;918579;-80
2021/07/09 05:24:09;;;;;;;8.90;6.30;;;;;;;;;;779686;176;919359;-78
2021/07/09 05:26:32;;;;;;;8.77;5.70;;;;;;;;;;772515;177;919173;-80
2021/07/09 05:28:57;;;;;;;8.90;5.70;;;;;;;;;;770596;180;918160;-82
2021/07/09 05:31:23;;;;;;;9.80;5.97;;;;;;;;;;772090;180;918967;-79
2021/07/09 05:33:49;;;;;;;12.60;5.50;;;;;;;;;;772000;180;918554;-77
2021/07/09 05:36:15;;;;;;;7.37;5.87;;;;;;;;;;773179;180;815325;-74
2021/07/09 05:38:41;;;;;;;9.83;6.43;;;;;;;;;;774412;176;919555;-79
2021/07/09 05:41:07;;;;;;;7.40;6.57;;;;;;;;;;775429;180;918667;-79
2021/07/09 05:43:32;;;;;;;8.33;7.33;;;;;;;;;;766716;180;816685;-78
2021/07/09 05:45:58;;;;;;;9.50;6.93;;;;;;;;;;766992;181;917502;-75
2021/07/09 05:48:24;;;;;;;9.27;6.93;;;;;;;;;;776858;180;918693;-73
2021/07/09 05:50:50;;;;;;;8.50;5.63;;;;;;;;;;773833;178;857352;-74
2021/07/09 05:53:16;;;;;;;8.30;6.30;;;;;;;;;;774259;179;915635;-81
2021/07/09 05:55:43;;;;;;;7.00;5.10;;;;;;;;;;779926;180;919197;-76
2021/07/09 05:58:08;;;;;;;5.33;4.40;;;;;;;;;;769281;180;918526;-72
2021/07/09 06:00:35;;;;;;;6.47;3.80;;;;;;;;;;770321;180;918584;-79
2021/07/09 06:03:01;;;;;;;5.30;3.57;;;;;;;;;;770043;179;905289;-75
2021/07/09 06:05:27;;;;;;;4.97;4.10;;;;;;;;;;775363;180;911010;-75
2021/07/09 06:07:52;;;;;;;5.70;3.70;;;;;;;;;;782021;176;919446;-74
2021/07/09 06:10:19;;;;;;;6.30;4.07;;;;;;;;;;782894;176;918272;-75
2021/07/09 06:12:44;;;;;;;6.70;3.53;;;;;;;;;;782903;174;918828;-74
2021/07/09 06:15:10;;;;;;;5.67;3.27;;;;;;;;;;771552;179;917182;-74
2021/07/09 06:17:36;;;;;;;4.13;2.90;;;;;;;;;;771013;180;918974;-73
2021/07/09 06:20:04;;;;;;;4.77;3.73;;;;;;;;;;775107;180;917894;-74
2021/07/09 06:22:28;;;;;;;7.10;3.63;;;;;;;;;;782574;174;918436;-75
2021/07/09 06:24:54;;;;;;;9.23;5.50;;;;;;;;;;769060;180;1021246;-74
2021/07/09 06:27:20;;;;;;;6.13;4.10;;;;;;;;;;768543;180;814314;-78
2021/07/09 06:29:45;;;;;;;5.33;3.77;;;;;;;;;;776642;180;816287;-69
2021/07/09 06:32:11;;;;;;;8.37;4.00;;;;;;;;;;765648;180;918900;-70
2021/07/09 06:34:37;;;;;;;8.77;4.60;;;;;;;;;;767138;177;918763;-73
2021/07/09 06:37:03;;;;;;;6.37;4.90;;;;;;;;;;787861;173;918917;-71
2021/07/09 06:39:29;;;;;;;7.30;4.53;;;;;;;;;;769077;180;918738;-68
2021/07/09 06:41:55;;;;;;;7.57;4.65;;;;;;;;;;773740;180;921828;-67
2021/07/09 06:44:21;;;;;;;6.53;5.80;;;;;;;;;;776043;180;919860;-69
2021/07/09 06:46:46;;;;;;;7.40;6.00;;;;;;;;;;770053;179;937426;-69
2021/07/09 06:49:12;;;;;;;8.07;6.80;;;;;;;;;;775998;176;914626;-68
2021/07/09 06:51:38;;;;;;;11.90;7.90;;;;;;;;;;770654;180;915241;-69
2021/07/09 06:54:04;;;;;;;9.03;7.90;;;;;;;;;;767628;180;916234;-73
2021/07/09 06:56:30;;;;;;;12.03;7.50;;;;;;;;;;765530;180;919614;-72
2021/07/09 06:58:56;;;;;;;12.30;8.50;;;;;;;;;;773092;176;919072;-68
2021/07/09 07:01:21;;;;;;;12.93;10.90;;;;;;;;;;781361;176;963688;-73
2021/07/09 07:03:47;;;;;;;13.80;9.33;;;;;;;;;;773305;179;918701;-70
2021/07/09 07:06:14;;;;;;;10.82;7.53;;;;;;;;;;774611;179;917802;-71
2021/07/09 07:08:39;;;;;;;10.00;8.20;;;;;;;;;;772761;180;918757;-73
2021/07/09 07:11:05;;;;;;;11.55;9.00;;;;;;;;;;773854;180;921677;-72
2021/07/09 07:13:31;;;;;;;11.53;10.10;;;;;;;;;;772058;180;918325;-72
2021/07/09 07:15:57;;;;;;;13.67;11.27;;;;;;;;;;771706;180;918560;-71
2021/07/09 07:18:22;;;;;;;11.30;10.00;;;;;;;;;;770448;180;920381;-72
2021/07/09 07:20:48;;;;;;;13.13;8.93;;;;;;;;;;770406;180;918412;-71
2021/07/09 07:23:15;;;;;;;11.10;8.40;;;;;;;;;;766922;180;918738;-74
2021/07/09 07:25:40;;;;;;;11.27;8.70;;;;;;;;;;774684;180;918134;-72
2021/07/09 07:28:06;;;;;;;13.60;7.20;;;;;;;;;;774046;176;918909;-72
2021/07/09 07:30:32;;;;;;;8.93;6.83;;;;;;;;;;778956;173;918912;-72
2021/07/09 07:32:58;;;;;;;11.67;6.70;;;;;;;;;;790016;175;800217;-74
2021/07/09 07:35:24;;;;;;;9.40;6.03;;;;;;;;;;767476;180;901160;-73
2021/07/09 07:37:50;;;;;;;9.23;4.63;;;;;;;;;;778771;175;918707;-71
2021/07/09 07:40:16;;;;;;;6.23;4.60;;;;;;;;;;773136;180;919105;-71
2021/07/09 07:42:41;;;;;;;6.30;4.60;;;;;;;;;;774241;179;675111;-71
2021/07/09 07:45:08;;;;;;;7.10;4.53;;;;;;;;;;775327;180;626826;-69
2021/07/09 07:47:34;;;;;;;7.77;4.73;;;;;;;;;;772111;180;633546;-68
2021/07/09 07:50:00;;;;;;;20.83;5.60;;;;;;;;;;776151;179;919264;-67
2021/07/09 07:55:18;;;;;;;9.60;3.67;;;;;;;;;;719757;185;913511;-79
2021/07/09 07:57:44;;;;;;;9.10;4.30;;;;;;;;;;732826;190;867005;-78
2021/07/09 08:00:11;;;;;;;10.03;4.20;;;;;;;;;;731292;190;914767;-79
2021/07/09 08:02:37;;;;;;;6.40;4.47;;;;;;;;;;722908;193;905922;-78
2021/07/09 08:05:03;;;;;;;19.00;4.30;;;;;;;;;;730888;187;917462;-78
2021/07/09 08:07:28;;;;;;;7.53;3.80;;;;;;;;;;733941;189;945587;-80
2021/07/09 08:09:54;;;;;;;5.93;3.47;;;;;;;;;;740499;189;629721;-79
2021/07/09 08:12:20;;;;;;;6.93;3.17;;;;;;;;;;736879;187;642758;-78
2021/07/09 08:14:46;;;;;;;9.67;3.53;;;;;;;;;;741876;188;634628;-78
2021/07/09 08:17:12;;;;;;;8.60;3.33;;;;;;;;;;742222;188;615695;-78
2021/07/09 08:19:38;;;;;;;6.30;3.80;;;;;;;;;;736243;189;814150;-78
2021/07/09 08:22:03;;;;;;;14.63;4.87;;;;;;;;;;737647;189;936512;-78
2021/07/09 08:24:29;;;;;;;7.17;3.30;;;;;;;;;;741834;187;877297;-78
2021/07/09 08:26:55;;;;;;;12.90;8.53;;;;;;;;;;738819;189;915790;-77
2021/07/09 08:29:21;;;;;;;8.87;6.27;;;;;;;;;;737826;187;907872;-78
2021/07/09 08:31:47;;;;;;;17.23;13.20;;;;;;;;;;736797;189;920377;-78
2021/07/09 08:34:13;;;;;;;12.93;10.20;;;;;;;;;;736830;188;916788;-77
2021/07/09 08:36:39;;;;;;;12.90;8.20;;;;;;;;;;738677;187;919264;-77
2021/07/09 08:39:04;;;;;;;15.60;12.77;;;;;;;;;;726972;191;918003;-77
2021/07/09 08:41:32;;;;;;;12.67;8.97;;;;;;;;;;736753;189;914920;-77
2021/07/09 08:43:56;;;;;;;10.07;6.10;;;;;;;;;;728501;187;919897;-77
2021/07/09 08:46:22;;;;;;;16.13;11.33;;;;;;;;;;734635;189;920800;-77
2021/07/09 08:48:48;;;;;;;7.40;6.27;;;;;;;;;;741820;189;916239;-77
2021/07/09 08:51:15;;;;;;;18.07;13.30;;;;;;;;;;736853;190;920304;-77
2021/07/09 08:53:40;;;;;;;7.80;5.90;;;;;;;;;;731125;190;887946;-77
2021/07/09 08:56:06;;;;;;;7.70;5.87;;;;;;;;;;734745;187;918826;-77
2021/07/09 08:58:31;;;;;;;20.70;11.80;;;;;;;;;;732239;189;916697;-77
2021/07/09 09:00:57;;;;;;;7.70;5.17;;;;;;;;;;727733;189;816726;-77
2021/07/09 09:03:25;;;;;;;5.97;3.92;;;;;;;;;;720566;193;918008;-77
2021/07/09 09:05:51;;;;;;;4.03;3.07;;;;;;;;;;742575;188;636172;-76
2021/07/09 09:08:16;;;;;;;4.23;2.63;;;;;;;;;;738842;187;816871;-77
2021/07/09 09:10:43;;;;;;;4.03;3.00;;;;;;;;;;735660;189;919365;-77
2021/07/09 09:13:09;;;;;;;4.20;3.40;;;;;;;;;;741819;187;919208;-77
2021/07/09 09:15:36;;;;;;;4.60;2.87;;;;;;;;;;735266;188;919601;-76
2021/07/09 09:18:02;;;;;;;6.87;2.23;;;;;;;;;;729351;190;816143;-77
2021/07/09 09:20:28;;;;;;;4.57;2.37;;;;;;;;;;729200;188;1988446;-77
2021/07/09 09:22:54;;;;;;;5.57;2.90;;;;;;;;;;730892;190;816305;-76
2021/07/09 09:25:20;;;;;;;7.43;3.40;;;;;;;;;;733011;188;913379;-77
2021/07/09 09:28:02;;;;;;;11.13;4.90;;;;;;;;;;730248;190;919580;-77
2021/07/09 09:30:28;;;;;;;9.55;4.97;;;;;;;;;;737207;189;870960;-77
2021/07/09 09:32:54;;;;;;;8.90;4.70;;;;;;;;;;744236;189;752630;-77
2021/07/09 09:35:22;;;;;;;5.03;3.23;;;;;;;;;;737762;187;817931;-76
2021/07/09 09:37:49;;;;;;;4.83;2.70;;;;;;;;;;736156;189;813730;-76
2021/07/09 09:40:15;;;;;;;6.73;2.73;;;;;;;;;;740588;189;625594;-76
2021/07/09 09:42:42;;;;;;;3.90;2.67;;;;;;;;;;737025;187;918721;-76
2021/07/09 09:45:07;;;;;;;6.00;3.17;;;;;;;;;;739894;188;904455;-76
2021/07/09 09:47:33;;;;;;;3.30;2.53;;;;;;;;;;726194;190;917780;-77
2021/07/09 09:49:59;;;;;;;4.80;2.80;;;;;;;;;;741664;187;859844;-77
2021/07/09 09:52:31;;;;;;;5.90;3.20;;;;;;;;;;738368;188;917709;-76
2021/07/09 09:54:56;;;;;;;5.50;3.20;;;;;;;;;;739951;189;814689;-76
2021/07/09 09:57:22;;;;;;;5.87;4.33;;;;;;;;;;741069;189;886959;-77
2021/07/09 09:59:51;;;;;;;5.27;3.47;;;;;;;;;;734589;189;920409;-76
2021/07/09 10:02:14;;;;;;;7.00;3.50;;;;;;;;;;734393;188;918615;-76
2021/07/09 10:04:40;;;;;;;17.37;4.30;;;;;;;;;;736225;187;918795;-77
2021/07/09 10:07:06;;;;;;;8.70;2.83;;;;;;;;;;731652;189;918375;-76
2021/07/09 10:09:32;;;;;;;4.43;3.03;;;;;;;;;;727290;190;918956;-76
2021/07/09 10:12:03;;;;;;;7.32;4.00;;;;;;;;;;731944;189;916849;-76
2021/07/09 10:14:23;;;;;;;7.20;2.90;;;;;;;;;;734968;189;797229;-77
2021/07/09 10:16:49;;;;;;;4.50;3.30;;;;;;;;;;720281;190;920077;-76
2021/07/09 10:19:16;;;;;;;4.83;3.30;;;;;;;;;;729085;189;918565;-76
2021/07/09 10:21:42;;;;;;;6.43;3.67;;;;;;;;;;737414;190;921786;-76
2021/07/09 10:24:13;;;;;;;6.20;3.40;;;;;;;;;;731011;190;876195;-77
2021/07/09 10:26:39;;;;;;;5.80;3.53;;;;;;;;;;733539;187;918639;-77
2021/07/09 10:29:10;;;;;;;6.17;3.67;;;;;;;;;;738074;188;825779;-76
2021/07/09 10:31:35;;;;;;;8.37;3.93;;;;;;;;;;741223;188;912384;-76
2021/07/09 10:34:01;;;;;;;4.73;3.20;;;;;;;;;;732235;190;915306;-76
2021/07/09 10:36:27;;;;;;;5.70;3.80;;;;;;;;;;731444;187;916829;-77
2021/07/09 10:38:53;;;;;;;5.73;3.40;;;;;;;;;;742730;186;811734;-76
2021/07/09 10:41:18;;;;;;;5.17;4.03;;;;;;;;;;721593;191;913781;-76
2021/07/09 10:43:45;;;;;;;7.07;3.90;;;;;;;;;;720753;189;913898;-76
2021/07/09 10:46:11;;;;;;;8.93;4.90;;;;;;;;;;739531;187;715159;-78
2021/07/09 10:48:37;;;;;;;6.27;4.27;;;;;;;;;;743899;187;876053;-76
2021/07/09 10:51:03;;;;;;;5.80;4.37;;;;;;;;;;739862;188;900766;-76
2021/07/09 10:53:31;;;;;;;8.37;4.37;;;;;;;;;;726016;190;918568;-77
2021/07/09 10:55:56;;;;;;;6.73;4.80;;;;;;;;;;743764;189;817157;-76
2021/07/09 10:58:41;;;;;;;7.07;4.20;;;;;;;;;;735886;190;918929;-76
2021/07/09 11:01:17;;;;;;;5.30;4.20;;;;;;;;;;733648;189;918946;-75
2021/07/09 11:03:45;;;;;;;7.27;4.60;;;;;;;;;;724139;189;919333;-76
2021/07/09 11:06:13;;;;;;;8.27;5.77;;;;;;;;;;736308;189;918801;-76
2021/07/09 11:08:43;;;;;;;5.87;4.77;;;;;;;;;;738707;187;901871;-76
2021/07/09 11:11:09;;;;;;;8.33;6.00;;;;;;;;;;731997;189;1021737;-77
2021/07/09 11:13:44;;;;;;;9.07;6.93;;;;;;;;;;744226;183;709301;-73
2021/07/09 11:16:15;;;;;;;8.70;6.60;;;;;;;;;;764815;182;922976;-72
2021/07/09 11:18:46;;;;;;;12.50;10.00;;;;;;;;;;754827;183;822340;-74
2021/07/09 11:21:11;;;;;;;15.07;11.40;;;;;;;;;;749528;186;1018647;-73
2021/07/09 11:23:37;;;;;;;20.40;14.40;;;;;;;;;;748262;186;1125681;-73
2021/07/09 11:26:06;;;;;;;13.37;9.83;;;;;;;;;;745528;186;919905;-75
2021/07/09 11:28:32;;;;;;;9.77;7.33;;;;;;;;;;749076;183;919780;-80
2021/07/09 11:30:58;;;;;;;12.07;8.60;;;;;;;;;;752827;186;918879;-77
2021/07/09 11:33:24;;;;;;;15.30;8.40;;;;;;;;;;746380;185;922706;-77
2021/07/09 11:35:50;;;;;;;8.17;6.00;;;;;;;;;;739354;187;1020379;-78
2021/07/09 11:38:15;;;;;;;8.10;6.00;;;;;;;;;;748553;186;1019682;-77
2021/07/09 11:40:41;;;;;;;11.15;7.00;;;;;;;;;;746981;186;915526;-75
2021/07/09 11:43:07;;;;;;;9.03;7.10;;;;;;;;;;743199;186;933274;-83
2021/07/09 11:45:33;;;;;;;7.03;5.70;;;;;;;;;;753085;186;818315;-80
2021/07/09 11:47:59;;;;;;;6.37;5.30;;;;;;;;;;749022;185;1020077;-79
2021/07/09 11:50:24;;;;;;;9.20;6.17;;;;;;;;;;752440;186;910680;-81
2021/07/09 11:52:50;;;;;;;8.37;5.03;;;;;;;;;;753119;185;920090;-78
2021/07/09 11:55:18;;;;;;;8.30;5.50;;;;;;;;;;747963;185;923922;-79
2021/07/09 11:57:42;;;;;;;7.60;5.23;;;;;;;;;;740495;184;1017910;-78
2021/07/09 12:00:08;;;;;;;7.23;4.43;;;;;;;;;;745175;184;1023363;-82
2021/07/09 12:02:34;;;;;;;6.93;4.67;;;;;;;;;;750433;187;918068;-81
2021/07/09 12:05:01;;;;;;;6.63;4.67;;;;;;;;;;744549;185;913236;-80
2021/07/09 12:07:26;;;;;;;7.30;5.40;;;;;;;;;;744850;185;891070;-79
2021/07/09 12:09:52;;;;;;;8.70;4.60;;;;;;;;;;748765;186;914660;-82
2021/07/09 12:12:18;;;;;;;6.10;4.93;;;;;;;;;;743364;186;913615;-76
2021/07/09 12:14:48;;;;;;;7.73;4.70;;;;;;;;;;745120;184;1009375;-78
2021/07/09 12:17:14;;;;;;;8.70;5.07;;;;;;;;;;748497;186;870800;-78
2021/07/09 12:19:45;;;;;;;7.50;4.67;;;;;;;;;;750191;186;920118;-79
2021/07/09 12:22:11;;;;;;;7.57;4.53;;;;;;;;;;747100;186;919926;-76
2021/07/09 12:24:37;;;;;;;6.40;4.53;;;;;;;;;;747946;186;896200;-82
2021/07/09 12:27:03;;;;;;;10.18;5.30;;;;;;;;;;748923;186;816039;-80
2021/07/09 12:29:29;;;;;;;9.53;4.73;;;;;;;;;;748858;186;889218;-80
2021/07/09 12:31:55;;;;;;;8.43;4.77;;;;;;;;;;743539;186;899297;-79
2021/07/09 12:34:21;;;;;;;10.47;7.03;;;;;;;;;;744772;186;918136;-83
2021/07/09 12:36:46;;;;;;;9.00;5.20;;;;;;;;;;746032;186;877254;-80
2021/07/09 12:39:12;;;;;;;12.37;6.40;;;;;;;;;;738743;186;916239;-83
2021/07/09 12:41:38;;;;;;;7.77;5.50;;;;;;;;;;742505;186;879931;-80
2021/07/09 12:44:06;;;;;;;10.05;6.05;;;;;;;;;;747150;187;918691;-79
2021/07/09 12:46:31;;;;;;;7.20;5.27;;;;;;;;;;742705;186;918576;-82
2021/07/09 12:48:57;;;;;;;7.40;5.00;;;;;;;;;;743260;186;915012;-83
2021/07/09 12:51:23;;;;;;;14.80;6.87;;;;;;;;;;750857;186;916362;-80
2021/07/09 12:53:50;;;;;;;15.63;7.10;;;;;;;;;;747182;186;914188;-79
2021/07/09 12:56:16;;;;;;;7.57;5.40;;;;;;;;;;747560;186;915711;-78
2021/07/09 12:58:41;;;;;;;6.50;5.40;;;;;;;;;;754943;186;915783;-81
2021/07/09 13:01:07;;;;;;;9.10;6.00;;;;;;;;;;737881;187;915695;-79
2021/07/09 13:03:33;;;;;;;7.93;5.73;;;;;;;;;;749000;186;918497;-80
2021/07/09 13:06:09;;;;;;;10.30;6.67;;;;;;;;;;750605;186;919353;-79
2021/07/09 13:08:34;;;;;;;9.80;7.13;;;;;;;;;;751058;186;816785;-77
2021/07/09 13:11:04;;;;;;;16.20;7.70;;;;;;;;;;742632;186;921868;-79
2021/07/09 13:13:30;;;;;;;10.17;7.80;;;;;;;;;;741008;185;915526;-75
2021/07/09 13:15:58;;;;;;;10.50;7.73;;;;;;;;;;744833;184;913903;-83
2021/07/09 13:18:25;;;;;;;15.50;9.17;;;;;;;;;;750917;186;850680;-79
2021/07/09 13:20:51;;;;;;;11.57;8.67;;;;;;;;;;746618;187;1013479;-79
2021/07/09 13:23:16;;;;;;;12.23;8.10;;;;;;;;;;746457;185;910900;-82
2021/07/09 13:25:45;;;;;;;11.33;9.37;;;;;;;;;;752624;186;778908;-80
2021/07/09 13:28:14;;;;;;;10.97;8.70;;;;;;;;;;748101;187;934623;-80
2021/07/09 13:30:38;;;;;;;10.90;8.07;;;;;;;;;;747261;187;920541;-80
2021/07/09 13:33:07;;;;;;;8.63;7.40;;;;;;;;;;740360;186;997177;-80
2021/07/09 13:35:32;;;;;;;10.33;7.60;;;;;;;;;;749052;186;909675;-82
2021/07/09 13:37:58;;;;;;;12.90;7.70;;;;;;;;;;744616;184;920300;-82
2021/07/09 13:40:24;;;;;;;11.80;9.10;;;;;;;;;;740896;187;1020765;-80
2021/07/09 13:42:50;;;;;;;11.53;7.57;;;;;;;;;;748816;186;919150;-85
2021/07/09 13:45:16;;;;;;;10.23;7.27;;;;;;;;;;746047;186;916366;-78
2021/07/09 13:47:42;;;;;;;13.00;8.10;;;;;;;;;;745443;187;918807;-80
2021/07/09 13:50:08;;;;;;;19.65;7.30;;;;;;;;;;751100;184;918763;-75
2021/07/09 13:52:34;;;;;;;11.20;6.73;;;;;;;;;;745526;186;918566;-79
2021/07/09 13:55:01;;;;;;;9.87;6.43;;;;;;;;;;747740;186;918533;-79
2021/07/09 13:57:26;;;;;;;11.32;7.00;;;;;;;;;;740908;186;925903;-86
2021/07/09 13:59:52;;;;;;;9.73;6.00;;;;;;;;;;752065;186;815315;-78
2021/07/09 14:02:17;;;;;;;10.97;6.27;;;;;;;;;;745048;186;958811;-79
2021/07/09 14:04:43;;;;;;;7.87;6.37;;;;;;;;;;746281;186;808362;-82
2021/07/09 14:07:09;;;;;;;20.70;7.73;;;;;;;;;;751389;186;816041;-81
2021/07/09 14:09:35;;;;;;;10.17;7.30;;;;;;;;;;748727;186;908693;-81
2021/07/09 14:12:02;;;;;;;9.93;7.23;;;;;;;;;;753212;185;1123713;-82
2021/07/09 14:14:29;;;;;;;9.48;7.40;;;;;;;;;;750448;185;920146;-76